Time;durP1;ratioP1;P1;durP2;ratioP2;P2;SDS_P1;SDS_P2;PMS_P1;PMS_P2;Temp;Humidity;BMP_temperature;BMP_pressure;BME280_temperature;BME280_humidity;BME280_pressure;Samples;Min_cycle;Max_cycle;Signal;HPM_P1;HPM_P2
2022/01/13 00:00:34;;;;;;;33.92;23.55;;;;;;;;;;5030758;28;20103;-70
2022/01/13 00:03:01;;;;;;;33.60;22.98;;;;;;;;;;5031633;28;20053;-70
2022/01/13 00:05:30;;;;;;;35.72;23.95;;;;;;;;;;5030774;28;20150;-70
2022/01/13 00:07:57;;;;;;;33.92;22.67;;;;;;;;;;5031742;28;20468;-70
2022/01/13 00:10:25;;;;;;;32.20;21.75;;;;;;;;;;5030622;28;20084;-70
2022/01/13 00:13:01;;;;;;;37.70;22.83;;;;;;;;;;5031710;28;20049;-70
2022/01/13 00:21:15;;;;;;;31.30;22.25;;;;;;;;;;5030985;28;20121;-70
2022/01/13 00:26:16;;;;;;;34.40;22.95;;;;;;;;;;5030776;28;20123;-70
2022/01/13 00:28:48;;;;;;;33.90;22.48;;;;;;;;;;5031418;28;20100;-71
2022/01/13 00:31:17;;;;;;;32.13;22.67;;;;;;;;;;5030423;28;20115;-70
2022/01/13 00:33:47;;;;;;;32.22;21.15;;;;;;;;;;5031655;28;20049;-70
2022/01/13 00:36:13;;;;;;;31.38;20.90;;;;;;;;;;5030223;28;20493;-70
2022/01/13 00:38:40;;;;;;;33.80;22.73;;;;;;;;;;5031417;28;20049;-70
2022/01/13 00:41:07;;;;;;;33.80;22.13;;;;;;;;;;5030872;28;20049;-70
2022/01/13 00:43:37;;;;;;;30.35;21.65;;;;;;;;;;5030831;28;20111;-70
2022/01/13 00:46:04;;;;;;;33.13;22.13;;;;;;;;;;5030406;28;20229;-70
2022/01/13 00:48:30;;;;;;;38.95;23.25;;;;;;;;;;5033947;28;20076;-70
2022/01/13 00:50:57;;;;;;;34.03;22.25;;;;;;;;;;5034231;28;20045;-70
2022/01/13 00:53:24;;;;;;;32.55;21.42;;;;;;;;;;5035070;28;20054;-70
2022/01/13 00:55:59;;;;;;;30.38;20.33;;;;;;;;;;5034108;28;20045;-70
2022/01/13 00:58:27;;;;;;;32.97;21.50;;;;;;;;;;5034937;28;20076;-70
2022/01/13 01:00:54;;;;;;;30.08;19.85;;;;;;;;;;5034102;28;20053;-70
2022/01/13 01:03:21;;;;;;;29.88;20.90;;;;;;;;;;5034858;28;20405;-71
2022/01/13 01:05:48;;;;;;;31.10;20.35;;;;;;;;;;5033792;28;20560;-70
2022/01/13 01:08:15;;;;;;;31.65;20.65;;;;;;;;;;5034657;28;20543;-70
2022/01/13 01:10:45;;;;;;;32.03;21.55;;;;;;;;;;5033731;28;20132;-71
2022/01/13 01:13:15;;;;;;;32.90;20.00;;;;;;;;;;5034444;28;20049;-70
2022/01/13 01:15:45;;;;;;;28.77;20.27;;;;;;;;;;5033746;28;20063;-70
2022/01/13 01:18:24;;;;;;;29.65;20.45;;;;;;;;;;5034715;28;20099;-70
2022/01/13 01:21:16;;;;;;;28.50;19.77;;;;;;;;;;5033803;28;20099;-70
2022/01/13 01:23:56;;;;;;;27.58;18.65;;;;;;;;;;5034104;28;20053;-69
2022/01/13 01:31:36;;;;;;;27.83;19.52;;;;;;;;;;5033655;28;20049;-71
2022/01/13 01:36:35;;;;;;;28.00;19.25;;;;;;;;;;5033631;28;20041;-71
2022/01/13 01:39:03;;;;;;;27.73;19.33;;;;;;;;;;5034346;28;20447;-71
2022/01/13 01:41:29;;;;;;;29.50;20.00;;;;;;;;;;5033428;28;20041;-71
2022/01/13 01:44:01;;;;;;;29.00;18.15;;;;;;;;;;5033946;28;20072;-71
2022/01/13 01:46:33;;;;;;;27.92;19.38;;;;;;;;;;5033486;28;20461;-71
2022/01/13 01:49:03;;;;;;;31.05;21.17;;;;;;;;;;5034000;28;20046;-71
2022/01/13 01:51:30;;;;;;;29.30;19.10;;;;;;;;;;5032904;28;20095;-71
2022/01/13 01:53:56;;;;;;;30.73;19.75;;;;;;;;;;5033878;28;20045;-69
2022/01/13 01:56:23;;;;;;;25.92;18.80;;;;;;;;;;5025063;28;20057;-71
2022/01/13 01:58:50;;;;;;;26.80;17.73;;;;;;;;;;5033435;28;20091;-71
2022/01/13 02:01:16;;;;;;;29.45;18.77;;;;;;;;;;5033218;28;20421;-71
2022/01/13 02:03:43;;;;;;;26.52;18.33;;;;;;;;;;5033544;28;20444;-71
2022/01/13 02:06:09;;;;;;;25.98;17.70;;;;;;;;;;5032664;28;20057;-71
2022/01/13 02:08:36;;;;;;;31.33;17.60;;;;;;;;;;5033686;28;20049;-71
2022/01/13 02:11:02;;;;;;;28.42;18.90;;;;;;;;;;5032589;28;20049;-71
2022/01/13 02:13:33;;;;;;;22.85;16.27;;;;;;;;;;5033569;28;20053;-71
2022/01/13 02:16:02;;;;;;;26.23;17.05;;;;;;;;;;5031404;28;20042;-71
2022/01/13 02:18:30;;;;;;;22.38;16.77;;;;;;;;;;5033129;28;20497;-71
2022/01/13 02:20:57;;;;;;;;;;;;;;;;;;5032993;28;20111;-71
2022/01/13 02:23:29;;;;;;;22.58;16.45;;;;;;;;;;5033277;28;19925;-71
2022/01/13 02:25:56;;;;;;;23.00;17.05;;;;;;;;;;5032271;28;20095;-71
2022/01/13 02:28:23;;;;;;;28.60;18.55;;;;;;;;;;5033307;28;20057;-72
2022/01/13 02:30:50;;;;;;;28.95;17.55;;;;;;;;;;5032577;28;20064;-71
2022/01/13 02:33:17;;;;;;;26.67;17.83;;;;;;;;;;5033164;28;20091;-71
2022/01/13 02:35:43;;;;;;;24.95;17.42;;;;;;;;;;5032582;28;20045;-71
2022/01/13 02:38:11;;;;;;;23.35;16.77;;;;;;;;;;5032881;28;20049;-70
2022/01/13 02:40:38;;;;;;;29.08;17.73;;;;;;;;;;5032198;28;20045;-71
2022/01/13 02:43:04;;;;;;;27.05;18.48;;;;;;;;;;5033258;28;20131;-72
2022/01/13 02:45:37;;;;;;;28.33;18.50;;;;;;;;;;5032405;28;20128;-71
2022/01/13 02:50:51;;;;;;;25.15;16.80;;;;;;;;;;5026257;28;20127;-71
2022/01/13 02:53:18;;;;;;;22.88;16.83;;;;;;;;;;5032471;28;20100;-71
2022/01/13 02:55:44;;;;;;;23.38;16.13;;;;;;;;;;5032098;28;20440;-71
2022/01/13 02:58:13;;;;;;;24.25;15.68;;;;;;;;;;5032436;28;20085;-71
2022/01/13 03:00:40;;;;;;;20.05;14.82;;;;;;;;;;5032008;28;20049;-71
2022/01/13 03:03:07;;;;;;;22.55;15.10;;;;;;;;;;5032471;28;20107;-71
2022/01/13 03:05:37;;;;;;;24.95;14.90;;;;;;;;;;5031874;28;20417;-71
2022/01/13 03:08:05;;;;;;;23.77;14.93;;;;;;;;;;5032485;28;20057;-70
2022/01/13 03:10:32;;;;;;;21.25;15.57;;;;;;;;;;5031034;28;20129;-71
2022/01/13 03:13:00;;;;;;;25.73;15.75;;;;;;;;;;5032540;28;20045;-71
2022/01/13 03:15:26;;;;;;;23.67;15.82;;;;;;;;;;5031560;28;20095;-71
2022/01/13 03:17:53;;;;;;;22.05;15.70;;;;;;;;;;5032249;28;20128;-71
2022/01/13 03:20:19;;;;;;;24.48;17.05;;;;;;;;;;5031449;28;20045;-72
2022/01/13 03:22:46;;;;;;;26.42;15.57;;;;;;;;;;5032160;28;20049;-71
2022/01/13 03:25:14;;;;;;;25.60;17.23;;;;;;;;;;5031882;28;20061;-71
2022/01/13 03:27:41;;;;;;;24.02;16.42;;;;;;;;;;5032088;28;20180;-71
2022/01/13 03:30:09;;;;;;;24.27;17.37;;;;;;;;;;5031562;28;20049;-71
2022/01/13 03:32:36;;;;;;;23.60;16.35;;;;;;;;;;5028021;28;20042;-70
2022/01/13 03:35:04;;;;;;;25.93;17.33;;;;;;;;;;5032135;28;20092;-70
2022/01/13 03:37:31;;;;;;;24.63;16.95;;;;;;;;;;5031579;28;20283;-71
2022/01/13 03:39:58;;;;;;;25.05;15.68;;;;;;;;;;5031863;28;20049;-71
2022/01/13 03:42:24;;;;;;;27.03;16.17;;;;;;;;;;5035834;28;20053;-71
2022/01/13 03:44:51;;;;;;;25.50;16.60;;;;;;;;;;5031666;28;20559;-71
2022/01/13 03:47:17;;;;;;;24.20;15.85;;;;;;;;;;5031332;28;20104;-71
2022/01/13 03:49:44;;;;;;;26.08;16.80;;;;;;;;;;5031537;28;20045;-72
2022/01/13 03:52:22;;;;;;;24.75;15.48;;;;;;;;;;5031318;28;20107;-71
2022/01/13 03:55:08;;;;;;;24.33;16.40;;;;;;;;;;5031735;28;20099;-70
2022/01/13 03:57:53;;;;;;;22.13;14.90;;;;;;;;;;5031506;28;20115;-71
2022/01/13 04:00:42;;;;;;;21.50;14.98;;;;;;;;;;5031277;28;20045;-71
2022/01/13 04:03:09;;;;;;;23.50;15.32;;;;;;;;;;5030487;28;20085;-71
2022/01/13 04:05:54;;;;;;;20.90;14.77;;;;;;;;;;5031082;28;20061;-71
2022/01/13 04:08:20;;;;;;;21.30;15.50;;;;;;;;;;5031488;28;20158;-71
2022/01/13 04:10:48;;;;;;;23.75;15.65;;;;;;;;;;5031003;28;20049;-71
2022/01/13 04:13:33;;;;;;;17.27;14.18;;;;;;;;;;5031383;28;20049;-70
2022/01/13 04:16:00;;;;;;;23.42;14.50;;;;;;;;;;5030902;28;20115;-70
2022/01/13 04:18:26;;;;;;;22.50;15.52;;;;;;;;;;5031376;28;20053;-70
2022/01/13 04:20:52;;;;;;;22.40;14.98;;;;;;;;;;5030658;28;20099;-71
2022/01/13 04:23:19;;;;;;;22.27;14.68;;;;;;;;;;5034126;28;20053;-71
2022/01/13 04:25:46;;;;;;;21.73;14.93;;;;;;;;;;5032995;28;20049;-70
2022/01/13 04:28:14;;;;;;;20.25;13.95;;;;;;;;;;5023757;28;20107;-72
2022/01/13 04:33:09;;;;;;;21.13;14.48;;;;;;;;;;5035399;28;20057;-71
2022/01/13 04:35:36;;;;;;;22.60;14.82;;;;;;;;;;5034339;28;20095;-71
2022/01/13 04:38:02;;;;;;;22.67;15.50;;;;;;;;;;5035295;28;20046;-71
2022/01/13 04:40:29;;;;;;;24.40;15.45;;;;;;;;;;5034902;28;20053;-71
2022/01/13 04:42:56;;;;;;;30.42;20.77;;;;;;;;;;5035009;28;20127;-71
2022/01/13 04:45:24;;;;;;;36.03;22.67;;;;;;;;;;5034584;28;20387;-71
2022/01/13 04:47:53;;;;;;;32.45;20.67;;;;;;;;;;5034675;28;20485;-72
2022/01/13 04:50:23;;;;;;;32.25;21.10;;;;;;;;;;5034479;28;20125;-71
2022/01/13 04:52:49;;;;;;;29.88;19.77;;;;;;;;;;5034910;28;20096;-71
2022/01/13 04:55:22;;;;;;;27.20;18.90;;;;;;;;;;5034228;28;20501;-71
2022/01/13 04:57:48;;;;;;;27.95;18.90;;;;;;;;;;5028433;28;20038;-70
2022/01/13 05:00:15;;;;;;;26.88;17.65;;;;;;;;;;5034308;28;20432;-71
2022/01/13 05:02:41;;;;;;;28.08;18.17;;;;;;;;;;5034506;28;20563;-71
2022/01/13 05:05:08;;;;;;;25.10;16.55;;;;;;;;;;5033606;28;20068;-71
2022/01/13 05:07:35;;;;;;;27.52;16.33;;;;;;;;;;5034817;28;20493;-71
2022/01/13 05:10:02;;;;;;;23.33;15.70;;;;;;;;;;5034463;28;20490;-71
2022/01/13 05:12:34;;;;;;;29.00;16.83;;;;;;;;;;5033925;28;20460;-71
2022/01/13 05:15:04;;;;;;;22.55;15.20;;;;;;;;;;5034836;28;20084;-71
2022/01/13 05:20:18;;;;;;;21.95;14.57;;;;;;;;;;5033850;28;20080;-70
2022/01/13 05:22:45;;;;;;;21.40;14.30;;;;;;;;;;5034024;28;20049;-70
2022/01/13 05:25:12;;;;;;;22.88;14.20;;;;;;;;;;5033799;28;20052;-71
2022/01/13 05:27:39;;;;;;;20.45;14.05;;;;;;;;;;5034630;28;20045;-70
2022/01/13 05:30:06;;;;;;;19.58;14.10;;;;;;;;;;5034048;28;20444;-71
2022/01/13 05:32:33;;;;;;;21.35;15.05;;;;;;;;;;5033161;28;20049;-70
2022/01/13 05:34:59;;;;;;;20.88;13.70;;;;;;;;;;5034327;28;20096;-70
2022/01/13 05:37:26;;;;;;;20.23;12.85;;;;;;;;;;5033591;28;20099;-71
2022/01/13 05:39:52;;;;;;;22.67;13.25;;;;;;;;;;5033830;28;20485;-71
2022/01/13 05:42:19;;;;;;;22.52;13.05;;;;;;;;;;5033729;28;20050;-71
2022/01/13 05:44:46;;;;;;;22.00;13.93;;;;;;;;;;5033867;28;20103;-72
2022/01/13 05:47:13;;;;;;;20.02;12.38;;;;;;;;;;5033246;28;20057;-72
2022/01/13 05:49:40;;;;;;;20.23;12.80;;;;;;;;;;5034054;28;20049;-71
2022/01/13 05:52:07;;;;;;;17.33;12.50;;;;;;;;;;5033653;28;20065;-72
2022/01/13 05:54:34;;;;;;;22.92;14.38;;;;;;;;;;5034087;28;20114;-71
2022/01/13 05:57:01;;;;;;;18.67;12.98;;;;;;;;;;5033170;28;20054;-71
2022/01/13 05:59:27;;;;;;;22.48;13.70;;;;;;;;;;5032534;28;20119;-71
2022/01/13 06:01:54;;;;;;;21.70;13.38;;;;;;;;;;5033051;28;20574;-71
2022/01/13 06:04:20;;;;;;;22.35;14.05;;;;;;;;;;5033847;28;20127;-71
2022/01/13 06:06:47;;;;;;;19.80;13.23;;;;;;;;;;5032436;28;20057;-71
2022/01/13 06:09:13;;;;;;;20.60;14.68;;;;;;;;;;5033434;28;20053;-71
2022/01/13 06:11:44;;;;;;;25.27;15.27;;;;;;;;;;5032978;28;20053;-71
2022/01/13 06:14:10;;;;;;;21.02;14.45;;;;;;;;;;5033696;28;20478;-71
2022/01/13 06:16:37;;;;;;;24.02;14.18;;;;;;;;;;5032833;28;20057;-71
2022/01/13 06:19:03;;;;;;;21.30;14.30;;;;;;;;;;5033228;28;20049;-71
2022/01/13 06:21:29;;;;;;;21.88;14.77;;;;;;;;;;5032919;28;20053;-71
2022/01/13 06:23:57;;;;;;;19.98;14.40;;;;;;;;;;5033328;28;20045;-71
2022/01/13 06:26:23;;;;;;;17.20;12.40;;;;;;;;;;5032764;28;20387;-71
2022/01/13 06:28:49;;;;;;;19.70;12.85;;;;;;;;;;5031915;28;20053;-70
2022/01/13 06:31:16;;;;;;;17.80;12.32;;;;;;;;;;5032362;28;20095;-70
2022/01/13 06:33:42;;;;;;;20.58;13.68;;;;;;;;;;5033522;28;20049;-70
2022/01/13 06:36:13;;;;;;;22.73;13.50;;;;;;;;;;5032075;28;20382;-71
2022/01/13 06:38:39;;;;;;;22.27;13.82;;;;;;;;;;5032365;28;20053;-71
2022/01/13 06:41:06;;;;;;;24.42;15.50;;;;;;;;;;5032121;28;20053;-70
2022/01/13 06:43:33;;;;;;;27.42;16.52;;;;;;;;;;5033098;28;20413;-71
2022/01/13 06:46:00;;;;;;;26.08;16.90;;;;;;;;;;5031317;28;20053;-71
2022/01/13 06:48:27;;;;;;;23.67;14.13;;;;;;;;;;5031347;28;20068;-71
2022/01/13 06:50:53;;;;;;;20.65;14.57;;;;;;;;;;5027636;28;20050;-71
2022/01/13 06:53:21;;;;;;;20.67;15.15;;;;;;;;;;5012703;28;20116;-71
2022/01/13 06:55:48;;;;;;;21.85;15.95;;;;;;;;;;5014723;28;20057;-71
2022/01/13 06:58:14;;;;;;;28.50;17.38;;;;;;;;;;5026749;28;20079;-71
2022/01/13 07:00:40;;;;;;;25.85;16.13;;;;;;;;;;5026072;28;20490;-72
2022/01/13 07:03:08;;;;;;;24.15;15.50;;;;;;;;;;5031840;28;20088;-70
2022/01/13 07:05:35;;;;;;;22.83;15.98;;;;;;;;;;5030920;28;20091;-72
2022/01/13 07:08:02;;;;;;;24.27;17.25;;;;;;;;;;5032333;28;20041;-71
2022/01/13 07:10:28;;;;;;;24.90;15.63;;;;;;;;;;5028704;28;20045;-71
2022/01/13 07:12:55;;;;;;;25.38;16.58;;;;;;;;;;5032139;28;20046;-72
2022/01/13 07:15:26;;;;;;;29.33;17.40;;;;;;;;;;5031610;28;20057;-72
2022/01/13 07:17:52;;;;;;;21.60;15.30;;;;;;;;;;5016188;28;20054;-73
2022/01/13 07:20:19;;;;;;;24.70;15.80;;;;;;;;;;5024988;28;20282;-72
2022/01/13 07:22:45;;;;;;;21.80;14.80;;;;;;;;;;5031927;28;20061;-72
2022/01/13 07:25:11;;;;;;;22.55;14.93;;;;;;;;;;5031372;28;20049;-71
2022/01/13 07:27:39;;;;;;;22.75;14.93;;;;;;;;;;5029975;28;20452;-71
2022/01/13 07:30:06;;;;;;;22.27;14.95;;;;;;;;;;5031239;28;20045;-72
2022/01/13 07:32:32;;;;;;;19.95;14.45;;;;;;;;;;5030456;28;20050;-71
2022/01/13 07:34:58;;;;;;;22.15;14.30;;;;;;;;;;5031571;28;20084;-70
2022/01/13 07:37:25;;;;;;;24.63;13.55;;;;;;;;;;5031217;28;20497;-71
2022/01/13 07:39:51;;;;;;;21.20;13.82;;;;;;;;;;5031847;28;20049;-71
2022/01/13 07:42:18;;;;;;;24.67;15.63;;;;;;;;;;5030830;28;20083;-71
2022/01/13 07:44:44;;;;;;;24.05;16.05;;;;;;;;;;5031957;28;20049;-70
2022/01/13 07:47:11;;;;;;;20.00;13.82;;;;;;;;;;5030692;28;20095;-71
2022/01/13 07:49:37;;;;;;;20.90;14.20;;;;;;;;;;5030530;28;20135;-71
2022/01/13 07:52:04;;;;;;;23.05;15.50;;;;;;;;;;5029768;28;20401;-71
2022/01/13 07:54:31;;;;;;;20.73;14.98;;;;;;;;;;5031796;28;20049;-71
2022/01/13 07:57:00;;;;;;;21.25;14.73;;;;;;;;;;5030744;28;20057;-71
2022/01/13 07:59:28;;;;;;;22.05;15.38;;;;;;;;;;5031262;28;20164;-71
2022/01/13 08:01:54;;;;;;;;;;;;;;;;;;5031217;28;20049;-71
2022/01/13 08:04:21;;;;;;;20.23;14.15;;;;;;;;;;5031581;28;19944;-71
2022/01/13 08:06:48;;;;;;;23.52;15.23;;;;;;;;;;5030607;28;20187;-71
2022/01/13 08:09:20;;;;;;;26.05;14.65;;;;;;;;;;5031859;28;20049;-71
2022/01/13 08:11:46;;;;;;;25.13;15.18;;;;;;;;;;5030724;28;20068;-71
2022/01/13 08:14:13;;;;;;;24.15;14.55;;;;;;;;;;5031744;28;20434;-71
2022/01/13 08:16:43;;;;;;;21.42;14.60;;;;;;;;;;5030799;28;20097;-71
2022/01/13 08:21:55;;;;;;;26.85;15.40;;;;;;;;;;5030833;28;20453;-71
2022/01/13 08:24:21;;;;;;;25.30;15.75;;;;;;;;;;5031585;28;20049;-71
2022/01/13 08:26:48;;;;;;;24.80;14.93;;;;;;;;;;5030559;28;20115;-71
2022/01/13 08:29:14;;;;;;;23.77;14.93;;;;;;;;;;5031493;28;20103;-71
2022/01/13 08:31:41;;;;;;;21.27;14.25;;;;;;;;;;5030634;28;20049;-71
2022/01/13 08:34:08;;;;;;;22.73;14.57;;;;;;;;;;5030109;28;20081;-71
2022/01/13 08:36:34;;;;;;;22.48;13.98;;;;;;;;;;5031862;28;20049;-71
2022/01/13 08:39:02;;;;;;;20.92;14.38;;;;;;;;;;5031460;28;20053;-71
2022/01/13 08:41:28;;;;;;;21.85;15.70;;;;;;;;;;5030595;28;20053;-71
2022/01/13 08:43:55;;;;;;;22.05;14.38;;;;;;;;;;5031387;28;20053;-71
2022/01/13 08:46:23;;;;;;;21.50;13.73;;;;;;;;;;5030686;28;20053;-71
2022/01/13 08:48:51;;;;;;;22.15;13.55;;;;;;;;;;5031163;28;20124;-71
2022/01/13 08:51:18;;;;;;;22.45;14.13;;;;;;;;;;5030534;28;20045;-71
2022/01/13 08:53:45;;;;;;;20.95;13.95;;;;;;;;;;5031096;28;20046;-71
2022/01/13 08:56:15;;;;;;;21.58;13.68;;;;;;;;;;5030715;28;20049;-71
2022/01/13 08:58:42;;;;;;;19.77;13.60;;;;;;;;;;5029835;28;20041;-71
2022/01/13 09:01:09;;;;;;;23.13;13.77;;;;;;;;;;5030443;28;20107;-71
2022/01/13 09:03:36;;;;;;;19.30;12.55;;;;;;;;;;5031203;28;20509;-71
2022/01/13 09:06:03;;;;;;;20.23;14.02;;;;;;;;;;5030255;28;20111;-71
2022/01/13 09:08:33;;;;;;;21.33;15.32;;;;;;;;;;5032319;28;20095;-71
2022/01/13 09:11:00;;;;;;;23.33;15.05;;;;;;;;;;5034337;28;20111;-71
2022/01/13 09:13:27;;;;;;;19.83;15.68;;;;;;;;;;5034562;28;20505;-71
2022/01/13 09:16:00;;;;;;;18.02;14.48;;;;;;;;;;5034022;28;20046;-71
2022/01/13 09:18:33;;;;;;;21.83;16.38;;;;;;;;;;5034474;28;20485;-72
2022/01/13 09:21:03;;;;;;;20.58;15.38;;;;;;;;;;5033644;28;20497;-71
2022/01/13 09:23:31;;;;;;;19.38;15.43;;;;;;;;;;5034294;28;20049;-71
2022/01/13 09:25:58;;;;;;;22.52;15.88;;;;;;;;;;5033068;28;20041;-72
2022/01/13 09:28:24;;;;;;;18.85;14.55;;;;;;;;;;5033086;28;20049;-71
2022/01/13 09:30:51;;;;;;;19.45;14.30;;;;;;;;;;5033114;28;20049;-72
2022/01/13 09:33:18;;;;;;;21.58;14.85;;;;;;;;;;5034042;28;20076;-72
2022/01/13 09:35:44;;;;;;;19.40;14.13;;;;;;;;;;5033671;28;20045;-72
2022/01/13 09:38:11;;;;;;;20.50;14.80;;;;;;;;;;5034278;28;20058;-72
2022/01/13 09:40:38;;;;;;;20.60;16.05;;;;;;;;;;5033383;28;20325;-72
2022/01/13 09:43:04;;;;;;;20.08;17.30;;;;;;;;;;5033882;28;20103;-72
2022/01/13 09:45:31;;;;;;;23.13;17.67;;;;;;;;;;5033659;28;20099;-72
2022/01/13 09:47:58;;;;;;;21.13;17.42;;;;;;;;;;5033946;28;20464;-72
2022/01/13 09:50:24;;;;;;;22.75;17.13;;;;;;;;;;5033505;28;20057;-72
2022/01/13 09:52:51;;;;;;;24.88;19.05;;;;;;;;;;5034002;28;20111;-72
2022/01/13 09:55:17;;;;;;;23.45;19.80;;;;;;;;;;5033169;28;20053;-72
2022/01/13 09:57:45;;;;;;;25.00;22.30;;;;;;;;;;5033603;28;20493;-72
2022/01/13 10:00:13;;;;;;;29.27;22.65;;;;;;;;;;5033066;28;20087;-72
2022/01/13 10:02:39;;;;;;;24.40;21.80;;;;;;;;;;5033533;28;20060;-72
2022/01/13 10:05:07;;;;;;;27.90;23.42;;;;;;;;;;5019295;28;20076;-71
2022/01/13 10:07:41;;;;;;;28.20;23.33;;;;;;;;;;5033259;28;20494;-72
2022/01/13 10:10:22;;;;;;;32.28;24.13;;;;;;;;;;5019185;28;20413;-72
2022/01/13 10:12:58;;;;;;;29.83;22.67;;;;;;;;;;5033443;28;20071;-71
2022/01/13 10:18:09;;;;;;;25.77;22.13;;;;;;;;;;5032872;28;20452;-72
2022/01/13 10:20:38;;;;;;;26.60;21.38;;;;;;;;;;5032522;28;20576;-72
2022/01/13 10:23:11;;;;;;;26.73;21.30;;;;;;;;;;5033312;28;20085;-72
2022/01/13 10:25:39;;;;;;;24.30;20.20;;;;;;;;;;5032255;28;20045;-72
2022/01/13 10:28:11;;;;;;;25.08;20.10;;;;;;;;;;5033174;28;20618;-72
2022/01/13 10:30:38;;;;;;;23.52;18.80;;;;;;;;;;5032611;28;20049;-71
2022/01/13 10:33:22;;;;;;;23.65;18.55;;;;;;;;;;5033019;28;20049;-70
2022/01/13 10:35:49;;;;;;;21.75;18.42;;;;;;;;;;5029835;28;20053;-70
2022/01/13 10:38:16;;;;;;;;;;;;;;;;;;5033536;28;20049;-70
2022/01/13 10:40:46;;;;;;;30.48;23.73;;;;;;;;;;5032489;28;19921;-70
2022/01/13 10:43:14;;;;;;;31.42;22.23;;;;;;;;;;5032981;28;20054;-70
2022/01/13 10:45:45;;;;;;;25.80;20.60;;;;;;;;;;5032618;28;20103;-70
2022/01/13 10:48:17;;;;;;;21.42;18.70;;;;;;;;;;5032609;28;20140;-71
2022/01/13 10:50:53;;;;;;;23.90;20.65;;;;;;;;;;5032429;28;20081;-70
2022/01/13 10:53:24;;;;;;;22.35;18.90;;;;;;;;;;5032708;28;20100;-70
2022/01/13 10:55:55;;;;;;;22.63;16.52;;;;;;;;;;5032302;28;20049;-70
2022/01/13 10:58:29;;;;;;;23.73;18.23;;;;;;;;;;5012884;28;20096;-70
2022/01/13 11:00:56;;;;;;;26.30;20.48;;;;;;;;;;5025681;28;20037;-70
2022/01/13 11:03:24;;;;;;;31.85;22.38;;;;;;;;;;5032417;28;20057;-70
2022/01/13 11:05:52;;;;;;;28.23;21.80;;;;;;;;;;5031829;28;20080;-70
2022/01/13 11:08:27;;;;;;;28.73;22.83;;;;;;;;;;5032597;28;20053;-70
2022/01/13 11:10:55;;;;;;;23.75;18.98;;;;;;;;;;5033167;28;20049;-70
2022/01/13 11:13:22;;;;;;;24.42;18.80;;;;;;;;;;5032368;28;20054;-70
2022/01/13 11:15:55;;;;;;;24.10;18.10;;;;;;;;;;5031700;28;20046;-70
2022/01/13 11:18:26;;;;;;;22.25;17.70;;;;;;;;;;5032264;28;20494;-70
2022/01/13 11:20:53;;;;;;;22.80;16.75;;;;;;;;;;5031870;28;20046;-72
2022/01/13 11:23:20;;;;;;;21.60;17.52;;;;;;;;;;5032558;28;20099;-72
2022/01/13 11:25:48;;;;;;;22.25;17.23;;;;;;;;;;5031333;28;20050;-70
2022/01/13 11:28:15;;;;;;;23.63;17.15;;;;;;;;;;5032525;28;20053;-70
2022/01/13 11:30:43;;;;;;;22.10;15.65;;;;;;;;;;5030785;28;20083;-70
2022/01/13 11:33:10;;;;;;;22.88;17.63;;;;;;;;;;5032216;28;20049;-70
2022/01/13 11:35:45;;;;;;;20.35;17.45;;;;;;;;;;5031221;28;20053;-70
2022/01/13 11:38:13;;;;;;;20.35;17.48;;;;;;;;;;5031951;28;20452;-70
2022/01/13 11:40:43;;;;;;;20.73;15.88;;;;;;;;;;5031175;28;20473;-70
2022/01/13 11:43:36;;;;;;;21.10;15.73;;;;;;;;;;5031894;28;20049;-71
2022/01/13 11:46:21;;;;;;;21.25;16.77;;;;;;;;;;5031625;28;20558;-70
2022/01/13 11:48:54;;;;;;;20.48;15.85;;;;;;;;;;5031605;28;20076;-70
2022/01/13 11:51:21;;;;;;;18.58;14.45;;;;;;;;;;5026111;28;20092;-70
2022/01/13 11:53:54;;;;;;;17.45;13.68;;;;;;;;;;5031629;28;20539;-70
2022/01/13 11:56:22;;;;;;;15.98;12.13;;;;;;;;;;5031106;28;20147;-70
2022/01/13 11:58:48;;;;;;;;;;;;;;;;;;5032318;28;20080;-70
2022/01/13 12:01:21;;;;;;;14.07;10.88;;;;;;;;;;5031175;28;20019;-70
2022/01/13 12:03:49;;;;;;;15.93;12.63;;;;;;;;;;5031877;28;20088;-70
2022/01/13 12:06:36;;;;;;;14.32;10.30;;;;;;;;;;5021965;28;20061;-70
2022/01/13 12:09:06;;;;;;;11.38;8.85;;;;;;;;;;5018279;28;20046;-71
2022/01/13 12:11:33;;;;;;;11.25;8.15;;;;;;;;;;5030919;28;20154;-71
2022/01/13 12:13:59;;;;;;;11.03;7.93;;;;;;;;;;5031676;28;20057;-72
2022/01/13 12:17:04;;;;;;;12.83;8.53;;;;;;;;;;5031011;28;20107;-72
2022/01/13 12:19:35;;;;;;;12.85;9.13;;;;;;;;;;5029188;28;20048;-71
2022/01/13 12:22:11;;;;;;;11.98;8.48;;;;;;;;;;5029791;28;20045;-71
2022/01/13 12:24:44;;;;;;;15.65;9.75;;;;;;;;;;5031679;28;20057;-71
2022/01/13 12:27:10;;;;;;;13.75;8.43;;;;;;;;;;5031026;28;20049;-71
2022/01/13 12:29:43;;;;;;;11.87;8.17;;;;;;;;;;5031488;28;20529;-71
2022/01/13 12:32:09;;;;;;;10.57;7.55;;;;;;;;;;5030917;28;20326;-71
2022/01/13 12:34:39;;;;;;;11.13;7.88;;;;;;;;;;5031528;28;20041;-71
2022/01/13 12:37:11;;;;;;;11.55;8.02;;;;;;;;;;5030401;28;20103;-71
2022/01/13 12:39:41;;;;;;;11.43;7.18;;;;;;;;;;5031261;28;20048;-71
2022/01/13 12:42:13;;;;;;;9.18;7.53;;;;;;;;;;5030900;28;20095;-71
2022/01/13 12:47:25;;;;;;;12.25;8.30;;;;;;;;;;5034079;28;20414;-71
2022/01/13 12:49:54;;;;;;;11.75;8.95;;;;;;;;;;5034997;28;20099;-71
2022/01/13 12:52:22;;;;;;;13.00;9.05;;;;;;;;;;5034646;28;20049;-71
2022/01/13 12:54:49;;;;;;;11.10;8.32;;;;;;;;;;5035093;28;20045;-71
2022/01/13 12:57:16;;;;;;;;;;;;;;;;;;5034030;28;20045;-71
2022/01/13 12:59:43;;;;;;;10.45;7.20;;;;;;;;;;5034406;28;19925;-71
2022/01/13 13:02:10;;;;;;;9.38;6.50;;;;;;;;;;5034126;28;20068;-71
2022/01/13 13:04:37;;;;;;;8.38;6.80;;;;;;;;;;5034679;28;20049;-71
2022/01/13 13:07:05;;;;;;;11.00;7.05;;;;;;;;;;5033748;28;20053;-71
2022/01/13 13:09:32;;;;;;;13.85;6.82;;;;;;;;;;5034902;28;20056;-71
2022/01/13 13:12:00;;;;;;;;;;;;;;;;;;5034550;28;20091;-71
2022/01/13 13:17:32;;;;;;;8.85;6.22;;;;;;;;;;5034333;28;20095;-71
2022/01/13 13:19:59;;;;;;;7.38;4.78;;;;;;;;;;5034519;28;20103;-71
2022/01/13 13:22:25;;;;;;;;;;;;;;;;;;5034103;28;20556;-71
2022/01/13 13:24:52;;;;;;;10.40;5.25;;;;;;;;;;5034348;28;19932;-71
2022/01/13 13:27:28;;;;;;;10.60;4.90;;;;;;;;;;5033608;28;20053;-71
2022/01/13 13:29:54;;;;;;;8.45;5.30;;;;;;;;;;5034319;28;20099;-71
2022/01/13 13:32:21;;;;;;;7.88;4.63;;;;;;;;;;5033632;28;20439;-71
2022/01/13 13:34:47;;;;;;;7.57;5.15;;;;;;;;;;5034180;28;20520;-71
2022/01/13 13:37:14;;;;;;;8.32;4.53;;;;;;;;;;5033459;28;20557;-71
2022/01/13 13:39:41;;;;;;;6.35;4.40;;;;;;;;;;5034429;28;20468;-71
2022/01/13 13:42:12;;;;;;;5.05;3.22;;;;;;;;;;5033469;28;20505;-71
2022/01/13 13:44:41;;;;;;;8.75;4.45;;;;;;;;;;5034229;28;20163;-71
2022/01/13 13:47:11;;;;;;;8.43;4.40;;;;;;;;;;5033212;28;20120;-71
2022/01/13 13:49:38;;;;;;;6.65;3.92;;;;;;;;;;5034186;28;20054;-71
2022/01/13 13:52:05;;;;;;;6.95;3.47;;;;;;;;;;5033306;28;20049;-71
2022/01/13 13:54:36;;;;;;;6.57;3.75;;;;;;;;;;5033192;28;20042;-71
2022/01/13 13:57:04;;;;;;;5.80;3.50;;;;;;;;;;5033192;28;20477;-71
2022/01/13 13:59:35;;;;;;;8.32;4.07;;;;;;;;;;5033934;28;20041;-71
2022/01/13 14:02:06;;;;;;;5.40;2.80;;;;;;;;;;5033291;28;20045;-71
2022/01/13 14:04:40;;;;;;;4.65;3.10;;;;;;;;;;5033632;28;20124;-71
2022/01/13 14:07:23;;;;;;;5.57;3.17;;;;;;;;;;5032890;28;20115;-71
2022/01/13 14:10:05;;;;;;;8.13;3.10;;;;;;;;;;5033789;28;20049;-71
2022/01/13 14:12:33;;;;;;;4.38;2.75;;;;;;;;;;5033259;28;20424;-71
2022/01/13 14:15:33;;;;;;;6.25;3.15;;;;;;;;;;5033729;28;20069;-71
2022/01/13 14:18:09;;;;;;;5.07;3.50;;;;;;;;;;5017597;28;20100;-71
2022/01/13 14:20:36;;;;;;;5.40;3.40;;;;;;;;;;5030275;28;20501;-71
2022/01/13 14:23:04;;;;;;;5.70;3.92;;;;;;;;;;5033441;28;20050;-71
2022/01/13 14:25:36;;;;;;;6.88;4.40;;;;;;;;;;5032439;28;20049;-71
2022/01/13 14:28:06;;;;;;;6.82;4.30;;;;;;;;;;5033107;28;20053;-71
2022/01/13 14:30:34;;;;;;;8.15;4.60;;;;;;;;;;5032369;28;20053;-72
2022/01/13 14:33:16;;;;;;;8.57;4.72;;;;;;;;;;5033015;28;20068;-71
2022/01/13 14:35:45;;;;;;;6.38;4.20;;;;;;;;;;5030531;28;20046;-71
2022/01/13 14:38:13;;;;;;;5.75;2.80;;;;;;;;;;5033216;28;20050;-71
2022/01/13 14:40:43;;;;;;;3.63;2.05;;;;;;;;;;5032296;28;20075;-71
2022/01/13 14:43:18;;;;;;;5.97;2.85;;;;;;;;;;5033199;28;20099;-71
2022/01/13 14:46:01;;;;;;;5.97;3.33;;;;;;;;;;5032334;28;20057;-71
2022/01/13 14:48:28;;;;;;;6.78;4.00;;;;;;;;;;5033014;28;20049;-71
2022/01/13 14:51:02;;;;;;;6.38;3.55;;;;;;;;;;5032322;28;20049;-71
2022/01/13 14:53:28;;;;;;;6.22;2.13;;;;;;;;;;5032694;28;20049;-71
2022/01/13 14:55:55;;;;;;;7.13;3.78;;;;;;;;;;5031871;28;20107;-71
2022/01/13 14:58:21;;;;;;;5.82;3.45;;;;;;;;;;5032529;28;20053;-71
2022/01/13 15:00:48;;;;;;;5.82;3.00;;;;;;;;;;5032428;28;20053;-71
2022/01/13 15:03:14;;;;;;;4.50;2.30;;;;;;;;;;5032870;28;20049;-71
2022/01/13 15:05:41;;;;;;;3.53;1.70;;;;;;;;;;5031049;28;20103;-71
2022/01/13 15:08:07;;;;;;;3.70;1.42;;;;;;;;;;5032695;28;20119;-71